createdAt,value
2017-10-08T00:01:23.198Z,11.60
2017-10-08T00:03:53.372Z,11.60
2017-10-08T00:06:22.474Z,11.50
2017-10-08T00:08:51.740Z,11.40
2017-10-08T00:11:20.841Z,11.50
2017-10-08T00:13:50.006Z,11.40
2017-10-08T00:16:25.620Z,11.40
2017-10-08T00:18:54.717Z,11.30
2017-10-08T00:21:23.802Z,11.30
2017-10-08T00:23:55.334Z,11.20
2017-10-08T00:26:24.994Z,11.20
2017-10-08T00:28:54.877Z,11.10
2017-10-08T00:31:24.480Z,11.10
2017-10-08T00:33:53.596Z,11.20
2017-10-08T00:36:22.725Z,11.20
2017-10-08T00:38:51.874Z,11.20
2017-10-08T00:41:21.725Z,11.10
2017-10-08T00:43:50.830Z,11.00
2017-10-08T00:46:20.710Z,11.10
2017-10-08T00:48:49.791Z,11.10
2017-10-08T00:51:19.706Z,11.10
2017-10-08T00:53:50.201Z,11.10
2017-10-08T00:56:19.349Z,11.10
2017-10-08T00:58:49.524Z,11.10
2017-10-08T01:01:18.854Z,11.10
2017-10-08T01:03:47.980Z,11.10
2017-10-08T01:06:17.091Z,11.20
2017-10-08T01:08:46.551Z,11.20
2017-10-08T01:11:15.637Z,11.30
2017-10-08T01:13:44.858Z,11.30
2017-10-08T01:16:14.729Z,11.30
2017-10-08T01:18:43.886Z,11.40
2017-10-08T01:21:13.025Z,11.30
2017-10-08T01:23:43.610Z,11.30
2017-10-08T01:26:12.745Z,11.30
2017-10-08T01:28:41.892Z,11.30
2017-10-08T01:31:11.353Z,11.30
2017-10-08T01:33:40.494Z,11.30
2017-10-08T01:36:09.740Z,11.30
2017-10-08T01:38:38.942Z,11.20
2017-10-08T01:41:08.944Z,11.10
2017-10-08T01:43:38.143Z,11.20
2017-10-08T01:46:07.348Z,11.10
2017-10-08T01:48:36.530Z,11.10
2017-10-08T01:51:05.873Z,11.10
2017-10-08T01:53:35.119Z,11.10
2017-10-08T01:56:04.321Z,11.10
2017-10-08T01:58:34.264Z,11.00
2017-10-08T02:01:05.053Z,11.00
2017-10-08T02:03:34.196Z,10.90
2017-10-08T02:06:03.376Z,10.90
2017-10-08T02:08:33.022Z,10.90
2017-10-08T02:11:03.043Z,10.80
2017-10-08T02:13:32.236Z,10.80
2017-10-08T02:16:01.856Z,10.80
2017-10-08T02:18:31.237Z,10.70
2017-10-08T02:21:01.207Z,10.60
2017-10-08T02:23:31.089Z,10.50
2017-10-08T02:26:01.043Z,10.50
2017-10-08T02:28:30.193Z,10.50
2017-10-08T02:30:59.897Z,10.50
2017-10-08T02:33:29.921Z,10.40
2017-10-08T02:35:59.147Z,10.40
2017-10-08T02:38:29.162Z,10.40
2017-10-08T02:40:58.407Z,10.30
2017-10-08T02:43:27.675Z,10.40
2017-10-08T02:45:56.891Z,10.40
2017-10-08T02:48:26.002Z,10.40
2017-10-08T02:50:55.098Z,10.40
2017-10-08T02:53:24.321Z,10.50
2017-10-08T02:55:53.433Z,10.50
2017-10-08T02:58:22.541Z,10.40
2017-10-08T03:00:51.709Z,10.40
2017-10-08T03:03:21.698Z,10.40
2017-10-08T03:05:50.882Z,10.40
2017-10-08T03:08:21.226Z,10.40
2017-10-08T03:10:50.347Z,10.30
2017-10-08T03:13:19.495Z,10.30
2017-10-08T03:15:49.080Z,10.30
2017-10-08T03:18:18.174Z,10.20
2017-10-08T03:20:47.309Z,10.20
2017-10-08T03:23:18.297Z,10.20
2017-10-08T03:25:48.186Z,10.10
2017-10-08T03:28:17.305Z,10.10
2017-10-08T03:30:47.158Z,10.00
2017-10-08T03:33:16.283Z,10.00
2017-10-08T03:35:46.130Z,9.90
2017-10-08T03:38:16.111Z,9.90
2017-10-08T03:40:45.216Z,9.80
2017-10-08T03:43:14.316Z,9.80
2017-10-08T03:45:43.822Z,9.80
2017-10-08T03:48:12.979Z,9.80
2017-10-08T03:50:42.055Z,9.80
2017-10-08T03:53:13.083Z,9.70
2017-10-08T03:55:42.214Z,9.70
2017-10-08T03:58:11.317Z,9.70
2017-10-08T04:00:40.599Z,9.70
2017-10-08T04:03:09.695Z,9.70
2017-10-08T04:05:38.793Z,9.60
2017-10-08T04:08:09.104Z,9.50
2017-10-08T04:10:38.184Z,9.50
2017-10-08T04:13:07.330Z,9.40
2017-10-08T04:15:36.514Z,9.40
2017-10-08T04:18:05.685Z,9.30
2017-10-08T04:20:34.824Z,9.30
2017-10-08T04:23:04.070Z,9.20
2017-10-08T04:25:33.246Z,9.20
2017-10-08T04:28:02.421Z,9.20
2017-10-08T04:30:31.629Z,9.20
2017-10-08T04:33:00.810Z,9.10
2017-10-08T04:35:30.804Z,9.10
2017-10-08T04:37:59.999Z,9.10
2017-10-08T04:40:29.118Z,9.00
2017-10-08T04:42:58.255Z,9.00
2017-10-08T04:45:27.414Z,9.00
2017-10-08T04:47:57.273Z,9.00
2017-10-08T04:50:26.422Z,9.00
2017-10-08T04:52:55.699Z,9.00
2017-10-08T04:55:24.791Z,9.00
2017-10-08T04:57:53.889Z,8.90
2017-10-08T05:00:24.128Z,8.90
2017-10-08T05:02:53.210Z,8.90
2017-10-08T05:05:23.087Z,8.90
2017-10-08T05:07:52.239Z,8.90
2017-10-08T05:10:21.321Z,8.80
2017-10-08T05:12:50.405Z,8.80
2017-10-08T05:15:19.961Z,8.80
2017-10-08T05:17:49.054Z,8.80
2017-10-08T05:20:18.166Z,8.70
2017-10-08T05:22:47.771Z,8.70
2017-10-08T05:25:16.874Z,8.70
2017-10-08T05:27:46.047Z,8.60
2017-10-08T05:30:15.962Z,8.60
2017-10-08T05:32:45.829Z,8.60
2017-10-08T05:35:14.913Z,8.50
2017-10-08T05:37:44.987Z,8.50
2017-10-08T05:40:14.062Z,8.50
2017-10-08T05:42:43.135Z,8.60
2017-10-08T05:45:13.016Z,8.50
2017-10-08T05:47:42.083Z,8.50
2017-10-08T05:50:11.921Z,8.50
2017-10-08T05:52:41.484Z,8.50
2017-10-08T05:55:10.604Z,8.50
2017-10-08T05:57:39.725Z,8.50
2017-10-08T06:00:09.639Z,8.50
2017-10-08T06:02:38.732Z,8.40
2017-10-08T06:05:07.804Z,8.40
2017-10-08T06:07:37.160Z,8.50
2017-10-08T06:10:06.253Z,8.50
2017-10-08T06:12:35.346Z,8.50
2017-10-08T06:15:04.818Z,8.60
2017-10-08T06:17:34.048Z,8.50
2017-10-08T06:20:04.345Z,8.60
2017-10-08T06:22:34.055Z,8.60
2017-10-08T06:25:03.146Z,8.70
2017-10-08T06:27:32.278Z,8.70
2017-10-08T06:30:02.548Z,8.80
2017-10-08T06:32:31.699Z,8.80
2017-10-08T06:35:00.861Z,8.80
2017-10-08T06:37:30.061Z,8.90
2017-10-08T06:39:59.190Z,8.90
2017-10-08T06:42:29.074Z,9.10
2017-10-08T06:44:58.613Z,9.00
2017-10-08T06:47:27.750Z,9.10
2017-10-08T06:49:56.830Z,9.10
2017-10-08T06:52:26.314Z,9.10
2017-10-08T06:54:55.398Z,9.10
2017-10-08T06:57:24.490Z,9.10
2017-10-08T06:59:54.366Z,9.10
2017-10-08T07:02:23.447Z,9.10
2017-10-08T07:04:52.546Z,9.20
2017-10-08T07:07:21.679Z,9.30
2017-10-08T07:09:50.787Z,9.30
2017-10-08T07:12:19.857Z,9.30
2017-10-08T07:14:49.742Z,9.40
2017-10-08T07:17:18.834Z,9.40
2017-10-08T07:19:47.930Z,9.50
2017-10-08T07:22:17.057Z,9.60
2017-10-08T07:24:46.149Z,9.60
2017-10-08T07:27:15.246Z,9.70
2017-10-08T07:29:45.421Z,9.70
2017-10-08T07:32:14.490Z,9.70
2017-10-08T07:34:43.578Z,9.80
2017-10-08T07:37:13.753Z,9.90
2017-10-08T07:39:42.862Z,9.90
2017-10-08T07:42:11.958Z,10.00
2017-10-08T07:44:41.125Z,10.10
2017-10-08T07:47:11.335Z,10.20
2017-10-08T07:49:40.442Z,10.20
2017-10-08T07:52:09.986Z,10.20
2017-10-08T07:54:39.856Z,10.10
2017-10-08T07:57:08.973Z,10.10
2017-10-08T07:59:39.826Z,10.20
2017-10-08T08:02:08.984Z,10.30
2017-10-08T08:04:39.210Z,10.40
2017-10-08T08:07:09.432Z,10.40
2017-10-08T08:09:38.601Z,10.40
2017-10-08T08:12:08.169Z,10.50
2017-10-08T08:14:37.658Z,10.40
2017-10-08T08:17:06.757Z,10.50
2017-10-08T08:19:35.914Z,10.60
2017-10-08T08:22:05.505Z,10.50
2017-10-08T08:24:34.676Z,10.60
2017-10-08T08:27:03.835Z,10.60
2017-10-08T08:29:33.560Z,10.80
2017-10-08T08:32:03.186Z,11.40
2017-10-08T08:34:32.291Z,12.10
2017-10-08T08:37:01.821Z,12.70
2017-10-08T08:39:30.950Z,13.20
2017-10-08T08:42:01.308Z,13.80
2017-10-08T08:44:30.675Z,14.30
2017-10-08T08:47:00.639Z,15.00
2017-10-08T08:49:29.862Z,15.00
2017-10-08T08:52:00.440Z,15.70
2017-10-08T08:54:29.659Z,15.50
2017-10-08T08:56:58.832Z,15.50
2017-10-08T08:59:28.470Z,15.10
2017-10-08T09:01:57.613Z,15.20
2017-10-08T09:04:26.718Z,15.70
2017-10-08T09:06:56.647Z,16.20
2017-10-08T09:09:25.763Z,16.20
2017-10-08T09:11:54.849Z,16.50
2017-10-08T09:14:25.061Z,16.10
2017-10-08T09:16:54.155Z,16.10
2017-10-08T09:19:23.266Z,15.80
2017-10-08T09:21:52.718Z,15.90
2017-10-08T09:24:21.830Z,16.40
2017-10-08T09:26:50.928Z,16.60
2017-10-08T09:29:20.974Z,17.10
2017-10-08T09:31:50.065Z,17.50
2017-10-08T09:34:19.954Z,18.60
2017-10-08T09:36:49.164Z,18.60
2017-10-08T09:39:18.286Z,18.10
2017-10-08T09:41:47.373Z,18.30
2017-10-08T09:44:17.345Z,19.50
2017-10-08T09:46:46.472Z,19.50
2017-10-08T09:49:15.576Z,19.40
2017-10-08T09:51:45.179Z,18.20
2017-10-08T09:54:14.278Z,18.90
2017-10-08T09:56:43.365Z,18.20
2017-10-08T09:59:13.875Z,18.80
2017-10-08T10:01:42.993Z,18.80
2017-10-08T10:04:12.855Z,18.70
2017-10-08T10:06:42.463Z,18.70
2017-10-08T10:09:11.601Z,18.00
2017-10-08T10:11:40.725Z,17.90
2017-10-08T10:14:10.435Z,18.50
2017-10-08T10:16:39.522Z,18.10
2017-10-08T10:19:08.681Z,18.40
2017-10-08T10:21:38.486Z,18.00
2017-10-08T10:24:07.998Z,17.90
2017-10-08T10:26:37.117Z,18.20
2017-10-08T10:29:06.785Z,18.70
2017-10-08T10:31:37.102Z,17.80
2017-10-08T10:34:07.383Z,18.50
2017-10-08T10:36:36.503Z,18.50
2017-10-08T10:39:05.735Z,19.00
2017-10-08T10:41:35.192Z,19.40
2017-10-08T10:44:04.478Z,19.50
2017-10-08T10:46:34.943Z,19.30
2017-10-08T10:49:04.534Z,18.60
2017-10-08T10:51:33.832Z,18.30
2017-10-08T10:54:02.973Z,17.60
2017-10-08T10:56:32.221Z,17.70
2017-10-08T10:59:01.422Z,17.90
2017-10-08T11:01:31.093Z,17.10
2017-10-08T11:04:01.467Z,17.60
2017-10-08T11:06:31.729Z,18.00
2017-10-08T11:09:00.870Z,17.80
2017-10-08T11:11:31.178Z,17.40
2017-10-08T11:14:00.296Z,17.40
2017-10-08T11:16:29.488Z,17.80
2017-10-08T11:18:58.789Z,18.70
2017-10-08T11:21:28.697Z,19.60
2017-10-08T11:23:58.005Z,19.50
2017-10-08T11:26:27.710Z,19.80
2017-10-08T11:28:56.879Z,19.50
2017-10-08T11:31:25.968Z,18.30
2017-10-08T11:33:55.608Z,18.10
2017-10-08T11:36:24.768Z,19.10
2017-10-08T11:38:53.902Z,19.80
2017-10-08T11:41:23.038Z,19.60
2017-10-08T11:43:52.150Z,19.10
2017-10-08T11:46:21.481Z,18.80
2017-10-08T11:48:51.475Z,18.60
2017-10-08T11:51:21.358Z,18.90
2017-10-08T11:53:50.492Z,18.90
2017-10-08T11:56:21.088Z,18.70
2017-10-08T11:58:51.004Z,18.30
2017-10-08T12:01:20.136Z,18.30
2017-10-08T12:03:49.398Z,18.40
2017-10-08T12:06:18.631Z,18.30
2017-10-08T12:08:47.772Z,18.70
2017-10-08T12:11:17.248Z,18.80
2017-10-08T12:13:46.466Z,19.00
2017-10-08T12:16:15.897Z,19.40
2017-10-08T12:18:45.370Z,19.50
2017-10-08T12:21:14.653Z,18.90
2017-10-08T12:23:43.766Z,18.50
2017-10-08T12:26:13.321Z,16.70
2017-10-08T12:28:42.415Z,15.60
2017-10-08T12:31:11.530Z,15.90
2017-10-08T12:33:41.797Z,16.90
2017-10-08T12:36:10.938Z,16.90
2017-10-08T12:38:40.031Z,17.20
2017-10-08T12:41:09.170Z,17.30
2017-10-08T12:43:38.326Z,17.20
2017-10-08T12:46:08.283Z,16.40
2017-10-08T12:48:37.614Z,15.80
2017-10-08T12:51:06.854Z,15.70
2017-10-08T12:53:36.137Z,15.60
2017-10-08T12:56:05.883Z,15.30
2017-10-08T12:58:35.772Z,14.90
2017-10-08T13:01:05.805Z,14.90
2017-10-08T13:03:36.291Z,14.60
2017-10-08T13:06:05.453Z,14.30
2017-10-08T13:08:34.646Z,14.10
2017-10-08T13:11:03.933Z,13.90
2017-10-08T13:13:33.045Z,14.00
2017-10-08T13:16:02.243Z,14.10
2017-10-08T13:18:32.876Z,14.00
2017-10-08T13:21:02.033Z,14.00
2017-10-08T13:23:31.288Z,14.10
2017-10-08T13:26:00.503Z,13.90
2017-10-08T13:28:29.732Z,13.70
2017-10-08T13:30:59.744Z,13.70
2017-10-08T13:33:30.093Z,13.60
2017-10-08T13:36:00.467Z,13.80
2017-10-08T13:38:30.898Z,13.80
2017-10-08T13:41:00.127Z,13.90
2017-10-08T13:43:29.363Z,13.90
2017-10-08T13:45:59.148Z,13.90
2017-10-08T13:48:28.458Z,13.80
2017-10-08T13:50:57.566Z,13.80
2017-10-08T13:53:28.132Z,13.90
2017-10-08T13:55:58.474Z,13.90
2017-10-08T13:58:27.899Z,13.90
2017-10-08T14:00:57.052Z,13.80
2017-10-08T14:03:26.935Z,13.60
2017-10-08T14:05:56.081Z,13.60
2017-10-08T14:08:26.920Z,13.50
2017-10-08T14:10:56.505Z,13.50
2017-10-08T14:13:26.442Z,13.60
2017-10-08T14:15:57.326Z,13.60
2017-10-08T14:18:27.208Z,13.50
2017-10-08T14:20:56.317Z,13.50
2017-10-08T14:23:25.937Z,13.30
2017-10-08T14:25:55.080Z,13.40
2017-10-08T14:28:24.746Z,13.40
2017-10-08T14:30:54.354Z,13.50
2017-10-08T14:33:23.465Z,13.40
2017-10-08T14:35:52.578Z,13.30
2017-10-08T14:38:21.707Z,13.20
2017-10-08T14:40:52.737Z,13.20
2017-10-08T14:43:22.762Z,13.10
2017-10-08T14:45:53.687Z,13.10
2017-10-08T14:48:22.816Z,13.10
2017-10-08T14:50:54.618Z,13.00
2017-10-08T14:53:24.389Z,13.00
2017-10-08T14:55:53.514Z,13.10
2017-10-08T14:58:24.854Z,13.10
2017-10-08T15:00:53.960Z,13.10
2017-10-08T15:03:23.078Z,13.10
2017-10-08T15:05:54.230Z,13.00
2017-10-08T15:08:23.382Z,13.10
2017-10-08T15:10:52.462Z,13.30
2017-10-08T15:13:23.412Z,13.40
2017-10-08T15:15:53.831Z,13.40
2017-10-08T15:18:22.992Z,13.40
2017-10-08T15:20:52.252Z,13.40
2017-10-08T15:23:21.367Z,13.30
2017-10-08T15:25:50.480Z,13.30
2017-10-08T15:28:21.612Z,13.30
2017-10-08T15:30:50.749Z,13.40
2017-10-08T15:33:19.877Z,13.40
2017-10-08T15:35:49.792Z,13.40
2017-10-08T15:38:18.902Z,13.40
2017-10-08T15:40:48.566Z,13.50
2017-10-08T15:43:18.830Z,13.50
2017-10-08T15:45:47.952Z,13.40
2017-10-08T15:48:18.192Z,13.40
2017-10-08T15:50:47.301Z,13.30
2017-10-08T15:53:16.401Z,13.20
2017-10-08T15:55:46.434Z,13.10
2017-10-08T15:58:15.554Z,13.10
2017-10-08T16:00:44.647Z,13.00
2017-10-08T16:03:14.593Z,13.00
2017-10-08T16:05:44.724Z,13.00
2017-10-08T16:08:13.860Z,12.90
2017-10-08T16:10:43.058Z,12.80
2017-10-08T16:13:12.174Z,12.80
2017-10-08T16:15:41.303Z,12.80
2017-10-08T16:18:11.492Z,12.70
2017-10-08T16:20:40.668Z,12.70
2017-10-08T16:23:10.744Z,12.60
2017-10-08T16:25:39.879Z,12.60
2017-10-08T16:28:09.011Z,12.60
2017-10-08T16:30:39.086Z,12.50
2017-10-08T16:33:08.396Z,12.50
2017-10-08T16:35:38.755Z,12.40
2017-10-08T16:38:07.973Z,12.40
2017-10-08T16:40:37.331Z,12.30
2017-10-08T16:43:06.594Z,12.20
2017-10-08T16:45:35.927Z,12.10
2017-10-08T16:48:07.191Z,12.10
2017-10-08T16:50:37.871Z,12.00
2017-10-08T16:53:07.905Z,12.00
2017-10-08T16:55:37.191Z,11.90
2017-10-08T16:58:06.366Z,11.80
2017-10-08T17:00:35.519Z,11.80
2017-10-08T17:03:05.406Z,11.80
2017-10-08T17:05:34.550Z,11.60
2017-10-08T17:08:03.801Z,11.60
2017-10-08T17:10:34.038Z,11.50
2017-10-08T17:13:03.937Z,11.50
2017-10-08T17:15:33.137Z,11.50
2017-10-08T17:18:03.597Z,11.50
2017-10-08T17:20:32.802Z,11.40
2017-10-08T17:23:01.979Z,11.30
2017-10-08T17:25:31.549Z,11.20
2017-10-08T17:28:01.801Z,11.10
2017-10-08T17:30:31.859Z,11.10
2017-10-08T17:33:01.338Z,11.10
2017-10-08T17:35:31.253Z,11.00
2017-10-08T17:38:00.435Z,11.00
2017-10-08T17:40:31.831Z,11.00
2017-10-08T17:43:01.005Z,10.80
2017-10-08T17:45:31.826Z,10.90
2017-10-08T17:48:02.495Z,10.80
2017-10-08T17:50:31.658Z,10.90
2017-10-08T17:53:02.287Z,10.80
2017-10-08T17:55:33.307Z,10.80
2017-10-08T17:58:02.511Z,10.80
2017-10-08T18:00:31.690Z,10.80
2017-10-08T18:03:03.010Z,10.80
2017-10-08T18:05:33.325Z,10.60
2017-10-08T18:08:02.660Z,10.60
2017-10-08T18:10:33.337Z,10.60
2017-10-08T18:13:02.515Z,10.50
2017-10-08T18:15:31.725Z,10.50
2017-10-08T18:18:02.043Z,10.50
2017-10-08T18:20:33.397Z,10.40
2017-10-08T18:23:02.683Z,10.40
2017-10-08T18:25:32.829Z,10.30
2017-10-08T18:28:02.049Z,10.30
2017-10-08T18:33:11.146Z,10.20
2017-10-08T18:35:40.800Z,10.20
2017-10-08T18:38:10.051Z,10.20
2017-10-08T18:40:39.178Z,10.20
2017-10-08T18:43:08.370Z,10.20
2017-10-08T18:45:38.005Z,10.20
2017-10-08T18:48:07.114Z,10.20
2017-10-08T18:50:36.743Z,10.20
2017-10-08T18:53:05.874Z,10.20
2017-10-08T18:55:35.957Z,10.10
2017-10-08T18:58:05.441Z,10.10
2017-10-08T19:00:34.588Z,10.10
2017-10-08T19:03:03.785Z,10.10
2017-10-08T19:05:33.399Z,10.10
2017-10-08T19:08:04.130Z,10.10
2017-10-08T19:10:33.268Z,10.10
2017-10-08T19:13:02.929Z,10.00
2017-10-08T19:15:32.577Z,10.00
2017-10-08T19:18:03.698Z,9.90
2017-10-08T19:20:33.790Z,9.90
2017-10-08T19:23:03.780Z,9.90
2017-10-08T19:25:33.344Z,9.90
2017-10-08T19:28:02.537Z,9.90
2017-10-08T19:30:31.824Z,9.90
2017-10-08T19:33:01.300Z,9.80
2017-10-08T19:35:30.499Z,9.80
2017-10-08T19:38:00.610Z,9.70
2017-10-08T19:40:30.762Z,9.70
2017-10-08T19:43:00.088Z,9.70
2017-10-08T19:45:29.338Z,9.70
2017-10-08T19:47:58.916Z,9.70
2017-10-08T19:50:29.060Z,9.60
2017-10-08T19:52:58.337Z,9.50
2017-10-08T19:55:29.423Z,9.40
2017-10-08T19:57:58.697Z,9.50
2017-10-08T20:00:28.742Z,9.50
2017-10-08T20:03:02.049Z,9.50
2017-10-08T20:05:32.127Z,9.50
2017-10-08T20:08:03.320Z,9.50
2017-10-08T20:10:32.492Z,9.50
2017-10-08T20:13:03.021Z,9.50
2017-10-08T20:15:32.633Z,9.40
2017-10-08T20:18:01.872Z,9.40
2017-10-08T20:20:31.242Z,9.30
2017-10-08T20:23:01.855Z,9.30
2017-10-08T20:25:31.212Z,9.30
2017-10-08T20:28:02.099Z,9.20
2017-10-08T20:30:31.224Z,9.20
2017-10-08T20:33:01.295Z,9.00
2017-10-08T20:35:30.507Z,9.00
2017-10-08T20:38:01.136Z,8.90
2017-10-08T20:40:30.342Z,8.80
2017-10-08T20:43:00.068Z,8.80
2017-10-08T20:45:29.272Z,8.80
2017-10-08T20:47:59.251Z,8.80
2017-10-08T20:50:28.715Z,8.80
2017-10-08T20:52:59.098Z,8.90
2017-10-08T20:55:28.288Z,8.80
2017-10-08T20:57:58.335Z,8.80
2017-10-08T21:00:27.519Z,8.80
2017-10-08T21:02:56.597Z,8.80
2017-10-08T21:05:26.627Z,8.70
2017-10-08T21:07:56.755Z,8.70
2017-10-08T21:10:26.134Z,8.60
2017-10-08T21:12:56.415Z,8.50
2017-10-08T21:15:25.514Z,8.50
2017-10-08T21:17:54.613Z,8.50
2017-10-08T21:20:24.143Z,8.50
2017-10-08T21:22:54.284Z,8.40
2017-10-08T21:25:23.537Z,8.40
2017-10-08T21:27:53.046Z,8.40
2017-10-08T21:30:22.186Z,8.40
2017-10-08T21:32:52.063Z,8.50
2017-10-08T21:35:21.503Z,8.40
2017-10-08T21:37:50.683Z,8.40
2017-10-08T21:40:20.810Z,8.30
2017-10-08T21:42:50.604Z,8.20
2017-10-08T21:45:20.470Z,8.20
2017-10-08T21:47:49.654Z,8.20
2017-10-08T21:50:19.222Z,8.00
2017-10-08T21:52:48.334Z,8.00
2017-10-08T21:55:17.458Z,8.00
2017-10-08T21:57:47.609Z,7.90
2017-10-08T22:00:16.736Z,8.00
2017-10-08T22:02:45.855Z,8.00
2017-10-08T22:05:15.256Z,8.10
2017-10-08T22:07:45.141Z,8.10
2017-10-08T22:10:14.614Z,8.10
2017-10-08T22:12:45.293Z,8.00
2017-10-08T22:15:14.428Z,8.00
2017-10-08T22:17:44.392Z,7.80
2017-10-08T22:20:14.678Z,7.70
2017-10-08T22:22:43.827Z,7.70
2017-10-08T22:25:13.733Z,7.70
2017-10-08T22:27:44.714Z,7.70
2017-10-08T22:30:15.036Z,7.70
2017-10-08T22:32:44.155Z,7.70
2017-10-08T22:35:15.086Z,7.70
2017-10-08T22:37:44.187Z,7.70
2017-10-08T22:40:13.931Z,7.70
2017-10-08T22:42:44.095Z,7.60
2017-10-08T22:45:14.073Z,7.60
2017-10-08T22:47:46.186Z,7.50
2017-10-08T22:50:15.317Z,7.50
2017-10-08T22:52:44.396Z,7.40
2017-10-08T22:55:13.523Z,7.40
2017-10-08T22:57:43.557Z,7.40
2017-10-08T23:00:12.753Z,7.40
2017-10-08T23:02:42.287Z,7.40
2017-10-08T23:05:11.506Z,7.30
2017-10-08T23:07:40.583Z,7.30
2017-10-08T23:10:10.556Z,7.30
2017-10-08T23:12:41.508Z,7.30
2017-10-08T23:15:10.720Z,7.30
2017-10-08T23:17:42.374Z,7.30
2017-10-08T23:20:11.465Z,7.30
2017-10-08T23:22:40.585Z,7.30
2017-10-08T23:25:09.836Z,7.30
2017-10-08T23:27:40.585Z,7.40
2017-10-08T23:30:10.896Z,7.30
2017-10-08T23:32:39.987Z,7.30
2017-10-08T23:35:09.103Z,7.30
2017-10-08T23:37:39.137Z,7.30
2017-10-08T23:40:08.245Z,7.20
2017-10-08T23:42:37.393Z,7.20
2017-10-08T23:45:07.790Z,7.20
2017-10-08T23:47:36.939Z,7.20
2017-10-08T23:50:06.794Z,7.20
2017-10-08T23:52:35.943Z,7.20
2017-10-08T23:55:05.087Z,7.20
2017-10-08T23:57:35.002Z,7.20
